createdAt,value
2018-03-04T00:00:04.140Z,84.33
2018-03-04T00:01:09.650Z,83.86
2018-03-04T00:02:15.176Z,83.67
2018-03-04T00:03:20.739Z,83.48
2018-03-04T00:04:26.214Z,83.86
2018-03-04T00:05:31.739Z,83.58
2018-03-04T00:06:37.278Z,83.48
2018-03-04T00:07:42.783Z,83.58
2018-03-04T00:08:48.312Z,83.39
2018-03-04T00:09:53.831Z,83.95
2018-03-04T00:10:59.350Z,84.05
2018-03-04T00:12:04.872Z,83.29
2018-03-04T00:13:10.402Z,82.92
2018-03-04T00:14:15.923Z,83.10
2018-03-04T00:15:21.444Z,83.20
2018-03-04T00:16:26.964Z,82.35
2018-03-04T00:17:32.485Z,82.44
2018-03-04T00:18:38.019Z,82.16
2018-03-04T00:19:43.534Z,82.44
2018-03-04T00:20:49.059Z,82.01
2018-03-04T00:21:54.585Z,82.48
2018-03-04T00:23:00.104Z,82.29
2018-03-04T00:24:05.625Z,82.20
2018-03-04T00:25:11.145Z,82.29
2018-03-04T00:26:16.666Z,82.01
2018-03-04T00:27:22.191Z,82.01
2018-03-04T00:28:27.717Z,81.82
2018-03-04T00:29:33.235Z,81.63
2018-03-04T00:30:38.757Z,81.45
2018-03-04T00:31:44.290Z,81.26
2018-03-04T00:32:49.803Z,81.82
2018-03-04T00:33:55.332Z,81.73
2018-03-04T00:35:00.846Z,81.54
2018-03-04T00:36:06.372Z,81.54
2018-03-04T00:37:11.892Z,81.45
2018-03-04T00:38:17.410Z,81.35
2018-03-04T00:39:22.933Z,80.98
2018-03-04T00:40:28.462Z,80.79
2018-03-04T00:41:33.980Z,81.16
2018-03-04T00:42:39.503Z,80.69
2018-03-04T00:43:45.027Z,81.07
2018-03-04T00:44:50.553Z,81.16
2018-03-04T00:45:56.068Z,80.79
2018-03-04T00:47:01.593Z,81.16
2018-03-04T00:48:07.125Z,80.60
2018-03-04T00:49:12.637Z,80.60
2018-03-04T00:50:18.162Z,80.79
2018-03-04T00:51:23.676Z,80.79
2018-03-04T00:52:29.202Z,80.51
2018-03-04T00:53:34.721Z,80.79
2018-03-04T00:54:40.253Z,80.51
2018-03-04T00:55:45.771Z,81.45
2018-03-04T00:56:51.287Z,81.07
2018-03-04T00:57:56.814Z,80.88
2018-03-04T00:59:02.330Z,81.26
2018-03-04T01:00:07.861Z,80.69
2018-03-04T01:01:13.375Z,80.88
2018-03-04T01:02:18.895Z,80.79
2018-03-04T01:03:24.428Z,80.84
2018-03-04T01:04:29.948Z,80.74
2018-03-04T01:05:35.466Z,80.74
2018-03-04T01:06:41.008Z,80.74
2018-03-04T01:07:46.514Z,80.74
2018-03-04T01:08:52.033Z,80.74
2018-03-04T01:09:57.557Z,81.03
2018-03-04T01:11:03.074Z,80.93
2018-03-04T01:12:08.601Z,80.74
2018-03-04T01:13:14.127Z,80.41
2018-03-04T01:14:19.643Z,80.22
2018-03-04T01:15:25.160Z,80.79
2018-03-04T01:16:30.683Z,80.56
2018-03-04T01:17:36.215Z,80.79
2018-03-04T01:18:41.739Z,80.56
2018-03-04T01:19:47.254Z,81.26
2018-03-04T01:20:52.773Z,81.31
2018-03-04T01:21:58.297Z,80.93
2018-03-04T01:23:03.814Z,80.65
2018-03-04T01:24:09.339Z,80.60
2018-03-04T01:25:14.861Z,80.60
2018-03-04T01:26:20.383Z,80.60
2018-03-04T01:27:25.907Z,80.69
2018-03-04T01:28:31.428Z,80.51
2018-03-04T01:29:36.948Z,80.79
2018-03-04T01:30:42.473Z,80.13
2018-03-04T01:31:47.996Z,80.22
2018-03-04T01:32:53.517Z,80.13
2018-03-04T01:33:59.035Z,79.85
2018-03-04T01:35:04.563Z,80.13
2018-03-04T01:36:10.083Z,80.13
2018-03-04T01:37:15.617Z,79.94
2018-03-04T01:38:21.126Z,80.04
2018-03-04T01:39:26.645Z,80.04
2018-03-04T01:40:32.176Z,79.94
2018-03-04T01:41:37.692Z,79.99
2018-03-04T01:42:43.212Z,80.27
2018-03-04T01:43:48.734Z,80.37
2018-03-04T01:44:54.291Z,80.18
2018-03-04T01:45:59.777Z,80.46
2018-03-04T01:47:05.296Z,80.27
2018-03-04T01:48:10.817Z,80.46
2018-03-04T01:49:16.344Z,80.46
2018-03-04T01:50:21.869Z,80.65
2018-03-04T01:51:27.384Z,80.84
2018-03-04T01:52:32.908Z,80.65
2018-03-04T01:53:38.428Z,80.84
2018-03-04T01:54:43.952Z,80.56
2018-03-04T01:55:49.479Z,80.65
2018-03-04T01:56:55.001Z,80.65
2018-03-04T01:58:00.517Z,80.84
2018-03-04T01:59:06.037Z,80.65
2018-03-04T02:00:11.567Z,80.27
2018-03-04T02:01:17.087Z,80.27
2018-03-04T02:02:22.608Z,80.46
2018-03-04T02:03:28.133Z,80.65
2018-03-04T02:04:33.661Z,79.80
2018-03-04T02:05:39.171Z,80.46
2018-03-04T02:06:44.700Z,80.56
2018-03-04T02:07:50.218Z,80.84
2018-03-04T02:08:55.734Z,81.03
2018-03-04T02:10:01.263Z,81.41
2018-03-04T02:11:06.786Z,81.03
2018-03-04T02:12:12.307Z,80.84
2018-03-04T02:13:17.826Z,81.03
2018-03-04T02:14:23.346Z,81.50
2018-03-04T02:15:28.868Z,81.41
2018-03-04T02:16:34.388Z,81.31
2018-03-04T02:17:39.912Z,81.31
2018-03-04T02:18:45.440Z,81.59
2018-03-04T02:19:50.954Z,81.41
2018-03-04T02:20:56.483Z,81.31
2018-03-04T02:22:02.004Z,81.41
2018-03-04T02:23:07.525Z,81.22
2018-03-04T02:24:13.046Z,81.41
2018-03-04T02:25:18.564Z,81.31
2018-03-04T02:26:24.088Z,81.31
2018-03-04T02:27:29.613Z,81.41
2018-03-04T02:28:35.131Z,81.41
2018-03-04T02:29:40.650Z,81.12
2018-03-04T02:30:46.179Z,81.22
2018-03-04T02:31:51.699Z,81.12
2018-03-04T02:32:57.218Z,81.31
2018-03-04T02:34:02.745Z,81.97
2018-03-04T02:35:08.262Z,81.88
2018-03-04T02:36:13.784Z,81.69
2018-03-04T02:37:19.310Z,81.69
2018-03-04T02:38:24.827Z,81.22
2018-03-04T02:39:30.356Z,81.41
2018-03-04T02:40:35.876Z,81.69
2018-03-04T02:41:41.396Z,81.69
2018-03-04T02:42:46.924Z,81.78
2018-03-04T02:43:52.441Z,81.59
2018-03-04T02:44:57.960Z,81.88
2018-03-04T02:46:03.480Z,81.78
2018-03-04T02:47:09.008Z,81.78
2018-03-04T02:48:14.530Z,81.69
2018-03-04T02:49:20.049Z,81.22
2018-03-04T02:50:25.568Z,80.74
2018-03-04T02:51:31.097Z,80.93
2018-03-04T02:52:36.613Z,80.74
2018-03-04T02:53:42.145Z,80.65
2018-03-04T02:54:47.655Z,80.84
2018-03-04T02:55:53.178Z,80.65
2018-03-04T02:56:58.705Z,80.84
2018-03-04T02:58:04.224Z,80.46
2018-03-04T02:59:09.752Z,80.84
2018-03-04T03:00:15.267Z,80.27
2018-03-04T03:01:20.796Z,80.37
2018-03-04T03:02:26.332Z,80.84
2018-03-04T03:03:31.845Z,80.74
2018-03-04T03:04:37.358Z,80.18
2018-03-04T03:05:42.877Z,80.37
2018-03-04T03:06:48.402Z,80.18
2018-03-04T03:07:53.939Z,80.08
2018-03-04T03:08:59.445Z,81.41
2018-03-04T03:10:04.966Z,80.27
2018-03-04T03:11:10.485Z,80.84
2018-03-04T03:12:16.011Z,80.46
2018-03-04T03:13:21.533Z,79.99
2018-03-04T03:14:27.052Z,80.27
2018-03-04T03:15:32.571Z,80.18
2018-03-04T03:16:38.095Z,80.84
2018-03-04T03:17:43.614Z,80.93
2018-03-04T03:18:49.135Z,80.74
2018-03-04T03:19:54.660Z,80.84
2018-03-04T03:21:00.180Z,80.74
2018-03-04T03:22:05.712Z,80.65
2018-03-04T03:23:11.226Z,80.65
2018-03-04T03:24:16.748Z,80.74
2018-03-04T03:25:22.273Z,80.65
2018-03-04T03:26:27.793Z,80.84
2018-03-04T03:27:33.308Z,80.74
2018-03-04T03:28:38.835Z,80.65
2018-03-04T03:29:44.356Z,80.74
2018-03-04T03:30:49.876Z,80.65
2018-03-04T03:31:55.403Z,80.84
2018-03-04T03:33:00.921Z,80.93
2018-03-04T03:34:06.442Z,80.93
2018-03-04T03:35:11.966Z,80.74
2018-03-04T03:36:17.485Z,80.56
2018-03-04T03:37:23.004Z,80.37
2018-03-04T03:38:28.528Z,80.93
2018-03-04T03:39:34.049Z,80.74
2018-03-04T03:40:39.571Z,80.84
2018-03-04T03:41:45.092Z,80.84
2018-03-04T03:42:50.614Z,80.37
2018-03-04T03:43:56.136Z,80.37
2018-03-04T03:45:01.666Z,80.74
2018-03-04T03:46:07.185Z,80.84
2018-03-04T03:47:12.696Z,80.93
2018-03-04T03:48:18.222Z,81.03
2018-03-04T03:49:23.750Z,80.65
2018-03-04T03:50:29.263Z,81.03
2018-03-04T03:51:34.783Z,80.65
2018-03-04T03:52:40.312Z,80.84
2018-03-04T03:53:45.832Z,80.84
2018-03-04T03:54:51.348Z,81.41
2018-03-04T03:55:56.872Z,81.22
2018-03-04T03:57:02.395Z,80.37
2018-03-04T03:58:07.916Z,80.27
2018-03-04T03:59:13.433Z,79.80
2018-03-04T04:00:18.958Z,80.27
2018-03-04T04:01:24.479Z,80.37
2018-03-04T04:02:30.010Z,80.08
2018-03-04T04:03:35.522Z,80.08
2018-03-04T04:04:41.056Z,80.46
2018-03-04T04:05:46.573Z,80.84
2018-03-04T04:06:52.090Z,80.18
2018-03-04T04:07:57.612Z,79.61
2018-03-04T04:09:03.135Z,80.27
2018-03-04T04:10:08.651Z,79.99
2018-03-04T04:11:14.171Z,79.52
2018-03-04T04:12:19.713Z,79.33
2018-03-04T04:13:25.214Z,79.24
2018-03-04T04:14:30.736Z,79.80
2018-03-04T04:15:36.259Z,79.43
2018-03-04T04:16:41.777Z,79.33
2018-03-04T04:17:47.300Z,79.61
2018-03-04T04:18:52.820Z,79.43
2018-03-04T04:19:58.343Z,79.99
2018-03-04T04:21:03.865Z,79.80
2018-03-04T04:22:09.389Z,79.99
2018-03-04T04:23:14.908Z,80.08
2018-03-04T04:24:20.428Z,80.27
2018-03-04T04:25:25.954Z,79.99
2018-03-04T04:26:31.477Z,80.37
2018-03-04T04:27:36.992Z,80.27
2018-03-04T04:28:42.513Z,80.18
2018-03-04T04:29:48.033Z,79.99
2018-03-04T04:30:53.553Z,80.08
2018-03-04T04:31:59.078Z,79.99
2018-03-04T04:33:04.598Z,80.27
2018-03-04T04:34:10.121Z,79.71
2018-03-04T04:35:15.643Z,79.90
2018-03-04T04:36:21.162Z,79.43
2018-03-04T04:37:26.691Z,79.80
2018-03-04T04:38:32.209Z,79.52
2018-03-04T04:39:37.779Z,79.33
2018-03-04T04:40:43.247Z,79.43
2018-03-04T04:41:48.769Z,79.43
2018-03-04T04:42:54.296Z,79.43
2018-03-04T04:43:59.809Z,79.33
2018-03-04T04:45:05.338Z,79.90
2018-03-04T04:46:10.857Z,80.18
2018-03-04T04:47:16.377Z,79.80
2018-03-04T04:48:21.895Z,79.80
2018-03-04T04:49:27.428Z,80.18
2018-03-04T04:50:32.941Z,79.43
2018-03-04T04:51:38.465Z,79.43
2018-03-04T04:52:43.982Z,79.90
2018-03-04T04:53:49.504Z,79.90
2018-03-04T04:54:55.027Z,80.37
2018-03-04T04:56:00.552Z,80.56
2018-03-04T04:57:06.092Z,80.08
2018-03-04T04:58:11.589Z,80.27
2018-03-04T04:59:17.122Z,79.33
2018-03-04T05:00:22.632Z,79.80
2018-03-04T05:01:28.161Z,80.08
2018-03-04T05:02:33.685Z,79.99
2018-03-04T05:03:39.200Z,79.14
2018-03-04T05:04:44.721Z,78.86
2018-03-04T05:05:50.246Z,78.71
2018-03-04T05:06:55.769Z,78.20
2018-03-04T05:08:01.290Z,77.67
2018-03-04T05:09:06.805Z,78.43
2018-03-04T05:10:12.336Z,77.86
2018-03-04T05:11:17.850Z,77.67
2018-03-04T05:12:23.381Z,77.49
2018-03-04T05:13:28.889Z,77.49
2018-03-04T05:14:34.419Z,77.39
2018-03-04T05:15:39.937Z,77.77
2018-03-04T05:16:45.465Z,77.77
2018-03-04T05:17:50.980Z,77.49
2018-03-04T05:18:56.507Z,77.96
2018-03-04T05:20:02.033Z,77.86
2018-03-04T05:21:07.557Z,77.67
2018-03-04T05:22:13.068Z,77.96
2018-03-04T05:23:18.590Z,77.77
2018-03-04T05:24:24.112Z,77.77
2018-03-04T05:25:29.639Z,77.58
2018-03-04T05:26:35.155Z,77.49
2018-03-04T05:27:40.676Z,77.58
2018-03-04T05:28:46.201Z,77.39
2018-03-04T05:29:51.721Z,77.67
2018-03-04T05:30:57.243Z,77.67
2018-03-04T05:32:02.765Z,77.30
2018-03-04T05:33:08.306Z,77.30
2018-03-04T05:34:13.808Z,77.49
2018-03-04T05:35:19.330Z,77.30
2018-03-04T05:36:24.858Z,76.82
2018-03-04T05:37:30.372Z,77.39
2018-03-04T05:38:35.896Z,77.30
2018-03-04T05:39:41.420Z,76.82
2018-03-04T05:40:46.945Z,77.30
2018-03-04T05:41:52.462Z,76.73
2018-03-04T05:42:57.980Z,76.45
2018-03-04T05:44:03.503Z,76.64
2018-03-04T05:45:09.032Z,76.54
2018-03-04T05:46:14.553Z,77.30
2018-03-04T05:47:20.073Z,76.82
2018-03-04T05:48:25.594Z,76.82
2018-03-04T05:49:31.111Z,77.01
2018-03-04T05:50:36.637Z,77.01
2018-03-04T05:51:42.157Z,77.58
2018-03-04T05:52:47.687Z,77.39
2018-03-04T05:53:53.202Z,77.30
2018-03-04T05:54:58.724Z,76.92
2018-03-04T05:56:04.247Z,76.82
2018-03-04T05:57:09.878Z,77.20
2018-03-04T05:58:15.289Z,77.96
2018-03-04T05:59:20.812Z,77.11
2018-03-04T06:00:26.339Z,76.73
2018-03-04T06:01:31.865Z,77.01
2018-03-04T06:02:37.376Z,76.54
2018-03-04T06:03:42.903Z,77.30
2018-03-04T06:04:48.418Z,76.45
2018-03-04T06:05:53.951Z,77.58
2018-03-04T06:06:59.464Z,77.58
2018-03-04T06:08:04.991Z,77.30
2018-03-04T06:09:10.519Z,77.30
2018-03-04T06:10:16.038Z,77.20
2018-03-04T06:11:21.562Z,77.20
2018-03-04T06:12:27.081Z,76.92
2018-03-04T06:13:32.596Z,77.20
2018-03-04T06:14:38.122Z,77.20
2018-03-04T06:15:43.673Z,77.20
2018-03-04T06:16:49.164Z,77.11
2018-03-04T06:17:54.693Z,76.73
2018-03-04T06:19:00.215Z,76.82
2018-03-04T06:20:05.734Z,76.17
2018-03-04T06:21:11.256Z,76.07
2018-03-04T06:22:16.776Z,75.60
2018-03-04T06:23:22.300Z,76.26
2018-03-04T06:24:27.824Z,77.01
2018-03-04T06:25:33.343Z,76.82
2018-03-04T06:26:38.868Z,77.30
2018-03-04T06:27:44.389Z,77.20
2018-03-04T06:28:49.914Z,76.92
2018-03-04T06:29:55.435Z,77.11
2018-03-04T06:31:00.959Z,77.01
2018-03-04T06:32:06.488Z,76.54
2018-03-04T06:33:12.004Z,76.64
2018-03-04T06:34:17.522Z,77.01
2018-03-04T06:35:23.043Z,76.82
2018-03-04T06:36:28.565Z,77.11
2018-03-04T06:37:34.088Z,76.92
2018-03-04T06:38:39.612Z,75.98
2018-03-04T06:39:45.141Z,76.17
2018-03-04T06:40:50.656Z,75.89
2018-03-04T06:41:56.177Z,76.64
2018-03-04T06:43:01.699Z,76.82
2018-03-04T06:44:07.232Z,76.54
2018-03-04T06:45:12.747Z,76.45
2018-03-04T06:46:18.273Z,77.30
2018-03-04T06:47:23.787Z,76.73
2018-03-04T06:48:29.317Z,76.17
2018-03-04T06:49:34.835Z,76.35
2018-03-04T06:50:40.360Z,75.89
2018-03-04T06:51:45.888Z,75.79
2018-03-04T06:52:51.398Z,75.98
2018-03-04T06:53:56.923Z,76.82
2018-03-04T06:55:02.445Z,76.73
2018-03-04T06:56:07.967Z,77.30
2018-03-04T06:57:13.490Z,76.73
2018-03-04T06:58:19.014Z,76.54
2018-03-04T06:59:24.540Z,76.45
2018-03-04T07:00:30.057Z,75.42
2018-03-04T07:01:35.586Z,75.60
2018-03-04T07:02:41.103Z,76.35
2018-03-04T07:03:46.628Z,76.45
2018-03-04T07:04:52.163Z,75.89
2018-03-04T07:05:57.674Z,75.51
2018-03-04T07:07:03.214Z,75.42
2018-03-04T07:08:08.758Z,75.89
2018-03-04T07:09:14.242Z,75.98
2018-03-04T07:10:19.770Z,75.70
2018-03-04T07:11:25.281Z,75.70
2018-03-04T07:12:30.811Z,75.98
2018-03-04T07:13:36.331Z,75.89
2018-03-04T07:14:41.856Z,75.79
2018-03-04T07:15:47.371Z,75.79
2018-03-04T07:16:52.898Z,75.79
2018-03-04T07:17:58.422Z,75.70
2018-03-04T07:19:03.939Z,75.60
2018-03-04T07:20:09.465Z,75.13
2018-03-04T07:21:14.984Z,75.42
2018-03-04T07:22:20.513Z,74.66
2018-03-04T07:23:26.047Z,74.47
2018-03-04T07:24:31.555Z,74.19
2018-03-04T07:25:37.086Z,74.79
2018-03-04T07:26:42.600Z,74.51
2018-03-04T07:27:48.122Z,74.79
2018-03-04T07:28:53.670Z,74.88
2018-03-04T07:29:59.168Z,74.51
2018-03-04T07:31:04.700Z,73.66
2018-03-04T07:32:10.215Z,73.57
2018-03-04T07:33:15.736Z,73.75
2018-03-04T07:34:21.263Z,73.47
2018-03-04T07:35:26.784Z,73.38
2018-03-04T07:36:32.302Z,73.57
2018-03-04T07:37:37.834Z,73.47
2018-03-04T07:38:43.352Z,72.62
2018-03-04T07:39:48.874Z,72.91
2018-03-04T07:40:54.405Z,73.38
2018-03-04T07:41:59.922Z,73.10
2018-03-04T07:43:05.443Z,73.85
2018-03-04T07:44:10.965Z,73.57
2018-03-04T07:45:16.492Z,73.38
2018-03-04T07:46:22.016Z,73.47
2018-03-04T07:47:27.533Z,73.38
2018-03-04T07:48:33.061Z,72.81
2018-03-04T07:49:38.586Z,73.00
2018-03-04T07:50:44.107Z,72.62
2018-03-04T07:51:49.636Z,72.81
2018-03-04T07:52:55.152Z,72.72
2018-03-04T07:54:00.674Z,72.62
2018-03-04T07:55:06.202Z,72.72
2018-03-04T07:56:11.734Z,73.00
2018-03-04T07:57:17.249Z,73.10
2018-03-04T07:58:22.769Z,73.19
2018-03-04T07:59:28.298Z,73.38
2018-03-04T08:00:33.814Z,73.10
2018-03-04T08:01:39.347Z,73.38
2018-03-04T08:02:44.868Z,73.75
2018-03-04T08:03:50.386Z,73.00
2018-03-04T08:04:55.916Z,73.66
2018-03-04T08:06:01.435Z,73.10
2018-03-04T08:07:06.957Z,73.47
2018-03-04T08:08:12.481Z,72.62
2018-03-04T08:09:17.999Z,73.28
2018-03-04T08:10:23.528Z,72.44
2018-03-04T08:11:29.096Z,72.72
2018-03-04T08:12:34.576Z,73.00
2018-03-04T08:13:40.097Z,72.72
2018-03-04T08:14:45.634Z,72.28
2018-03-04T08:15:51.145Z,72.15
2018-03-04T08:16:56.684Z,72.47
2018-03-04T08:18:02.195Z,71.91
2018-03-04T08:19:07.721Z,71.91
2018-03-04T08:20:13.242Z,71.53
2018-03-04T08:21:18.766Z,71.72
2018-03-04T08:22:24.299Z,71.91
2018-03-04T08:23:29.816Z,71.81
2018-03-04T08:24:35.344Z,72.00
2018-03-04T08:25:40.871Z,71.43
2018-03-04T08:26:46.388Z,70.58
2018-03-04T08:27:52.000Z,71.34
2018-03-04T08:28:57.436Z,71.25
2018-03-04T08:30:02.964Z,71.43
2018-03-04T08:31:08.486Z,71.15
2018-03-04T08:32:14.012Z,71.15
2018-03-04T08:33:19.533Z,71.43
2018-03-04T08:34:25.067Z,71.53
2018-03-04T08:35:30.586Z,72.09
2018-03-04T08:36:36.108Z,71.81
2018-03-04T08:37:41.631Z,71.81
2018-03-04T08:38:47.153Z,71.53
2018-03-04T08:39:52.680Z,71.62
2018-03-04T08:40:58.203Z,70.87
2018-03-04T08:42:03.725Z,69.92
2018-03-04T08:43:09.253Z,70.39
2018-03-04T08:44:14.783Z,70.68
2018-03-04T08:45:20.304Z,70.02
2018-03-04T08:46:25.824Z,69.45
2018-03-04T08:47:31.348Z,69.92
2018-03-04T08:48:36.874Z,70.39
2018-03-04T08:49:42.402Z,70.77
2018-03-04T08:50:47.948Z,69.73
2018-03-04T08:51:53.451Z,68.70
2018-03-04T08:52:58.981Z,68.79
2018-03-04T08:54:04.496Z,68.51
2018-03-04T08:55:10.025Z,68.79
2018-03-04T08:56:15.550Z,68.35
2018-03-04T08:57:21.082Z,68.73
2018-03-04T08:58:26.612Z,67.97
2018-03-04T08:59:32.127Z,67.88
2018-03-04T09:00:37.645Z,67.79
2018-03-04T09:01:43.169Z,66.94
2018-03-04T09:02:48.697Z,66.37
2018-03-04T09:03:54.234Z,67.03
2018-03-04T09:04:59.749Z,67.32
2018-03-04T09:06:05.281Z,67.22
2018-03-04T09:07:10.801Z,66.75
2018-03-04T09:08:16.328Z,66.65
2018-03-04T09:09:21.850Z,66.56
2018-03-04T09:10:27.375Z,66.09
2018-03-04T09:11:32.902Z,66.65
2018-03-04T09:12:38.424Z,67.22
2018-03-04T09:13:43.954Z,67.22
2018-03-04T09:14:49.511Z,67.03
2018-03-04T09:15:55.011Z,66.75
2018-03-04T09:17:00.539Z,66.18
2018-03-04T09:18:06.054Z,66.28
2018-03-04T09:19:11.585Z,66.18
2018-03-04T09:20:17.106Z,65.80
2018-03-04T09:21:22.636Z,66.18
2018-03-04T09:22:28.160Z,66.41
2018-03-04T09:23:33.692Z,66.03
2018-03-04T09:24:39.209Z,66.12
2018-03-04T09:25:44.737Z,64.79
2018-03-04T09:26:50.264Z,64.70
2018-03-04T09:27:55.802Z,64.51
2018-03-04T09:29:01.314Z,65.55
2018-03-04T09:30:06.843Z,65.36
2018-03-04T09:31:12.370Z,64.70
2018-03-04T09:32:17.898Z,63.60
2018-03-04T09:33:23.468Z,63.70
2018-03-04T09:34:28.951Z,63.70
2018-03-04T09:35:34.475Z,64.17
2018-03-04T09:36:40.014Z,62.66
2018-03-04T09:37:45.533Z,61.61
2018-03-04T09:38:51.061Z,62.56
2018-03-04T09:39:56.586Z,62.37
2018-03-04T09:41:02.117Z,61.68
2018-03-04T09:42:07.636Z,62.34
2018-03-04T09:43:13.167Z,62.44
2018-03-04T09:44:18.696Z,62.91
2018-03-04T09:45:24.224Z,63.00
2018-03-04T09:46:29.750Z,63.13
2018-03-04T09:47:35.274Z,62.72
2018-03-04T09:48:40.802Z,62.53
2018-03-04T09:49:46.335Z,62.94
2018-03-04T09:50:51.862Z,62.62
2018-03-04T09:51:57.385Z,61.96
2018-03-04T09:53:02.913Z,61.87
2018-03-04T09:54:08.442Z,62.18
2018-03-04T09:55:13.970Z,61.96
2018-03-04T09:56:19.495Z,62.75
2018-03-04T09:57:25.026Z,63.79
2018-03-04T09:58:30.555Z,63.23
2018-03-04T09:59:36.113Z,62.56
2018-03-04T10:00:41.624Z,61.90
2018-03-04T10:01:47.135Z,61.61
2018-03-04T10:02:52.665Z,61.61
2018-03-04T10:03:58.193Z,61.61
2018-03-04T10:05:03.728Z,61.99
2018-03-04T10:06:09.255Z,62.66
2018-03-04T10:07:14.777Z,62.18
2018-03-04T10:08:20.359Z,61.90
2018-03-04T10:09:25.829Z,61.80
2018-03-04T10:10:31.359Z,60.58
2018-03-04T10:11:36.884Z,61.05
2018-03-04T10:12:42.415Z,60.96
2018-03-04T10:13:47.941Z,60.61
2018-03-04T10:14:53.527Z,60.01
2018-03-04T10:15:58.997Z,60.70
2018-03-04T10:17:04.535Z,60.01
2018-03-04T10:18:10.057Z,59.92
2018-03-04T10:19:15.582Z,60.20
2018-03-04T10:20:21.116Z,60.89
2018-03-04T10:21:26.647Z,60.23
2018-03-04T10:22:32.166Z,60.33
2018-03-04T10:23:37.703Z,59.95
2018-03-04T10:24:43.233Z,61.08
2018-03-04T10:25:48.756Z,59.85
2018-03-04T10:26:54.279Z,59.95
2018-03-04T10:27:59.816Z,59.95
2018-03-04T10:29:05.340Z,59.95
2018-03-04T10:30:10.865Z,59.38
2018-03-04T10:31:16.402Z,59.28
2018-03-04T10:32:21.926Z,58.91
2018-03-04T10:33:27.469Z,59.38
2018-03-04T10:34:32.985Z,58.34
2018-03-04T10:35:38.514Z,58.81
2018-03-04T10:36:44.043Z,60.23
2018-03-04T10:37:49.571Z,60.23
2018-03-04T10:38:55.098Z,59.57
2018-03-04T10:40:00.624Z,59.47
2018-03-04T10:41:06.157Z,59.47
2018-03-04T10:42:11.691Z,59.38
2018-03-04T10:43:17.213Z,59.38
2018-03-04T10:44:22.742Z,58.15
2018-03-04T10:45:28.269Z,58.25
2018-03-04T10:46:33.804Z,59.19
2018-03-04T10:47:39.334Z,59.47
2018-03-04T10:48:44.856Z,59.38
2018-03-04T10:49:50.391Z,58.62
2018-03-04T10:50:55.922Z,59.38
2018-03-04T10:52:01.444Z,59.85
2018-03-04T10:53:06.980Z,59.85
2018-03-04T10:54:12.503Z,59.50
2018-03-04T10:55:18.034Z,58.18
2018-03-04T10:56:23.569Z,57.90
2018-03-04T10:57:29.094Z,58.18
2018-03-04T10:58:34.623Z,57.80
2018-03-04T10:59:40.150Z,57.39
2018-03-04T11:00:45.679Z,57.87
2018-03-04T11:01:51.227Z,58.06
2018-03-04T11:02:56.739Z,58.53
2018-03-04T11:04:02.275Z,58.28
2018-03-04T11:05:07.801Z,58.94
2018-03-04T11:06:13.333Z,59.22
2018-03-04T11:07:18.862Z,59.69
2018-03-04T11:08:24.383Z,59.88
2018-03-04T11:09:29.915Z,59.88
2018-03-04T11:10:35.443Z,58.65
2018-03-04T11:11:40.976Z,58.75
2018-03-04T11:12:46.507Z,59.03
2018-03-04T11:13:52.044Z,58.28
2018-03-04T11:14:57.564Z,58.09
2018-03-04T11:16:03.095Z,58.09
2018-03-04T11:17:08.660Z,58.37
2018-03-04T11:18:14.161Z,57.99
2018-03-04T11:19:19.681Z,58.11
2018-03-04T11:20:25.221Z,57.71
2018-03-04T11:21:30.750Z,57.04
2018-03-04T11:22:36.274Z,57.90
2018-03-04T11:23:41.823Z,57.71
2018-03-04T11:24:47.331Z,57.71
2018-03-04T11:25:52.869Z,58.09
2018-03-04T11:26:58.390Z,57.90
2018-03-04T11:28:03.920Z,57.80
2018-03-04T11:29:09.453Z,57.92
2018-03-04T11:30:14.990Z,57.80
2018-03-04T11:31:20.513Z,58.18
2018-03-04T11:32:26.046Z,57.92
2018-03-04T11:33:31.586Z,57.71
2018-03-04T11:34:37.105Z,57.90
2018-03-04T11:35:42.632Z,57.26
2018-03-04T11:36:48.304Z,56.98
2018-03-04T11:37:53.694Z,57.35
2018-03-04T11:38:59.234Z,57.92
2018-03-04T11:40:04.754Z,57.26
2018-03-04T11:41:10.282Z,56.70
2018-03-04T11:42:15.811Z,55.94
2018-03-04T11:43:21.343Z,56.13
2018-03-04T11:44:26.870Z,57.26
2018-03-04T11:45:32.401Z,57.54
2018-03-04T11:46:37.944Z,57.73
2018-03-04T11:47:43.465Z,57.64
2018-03-04T11:48:48.995Z,57.17
2018-03-04T11:49:54.526Z,56.22
2018-03-04T11:51:00.058Z,54.71
2018-03-04T11:52:05.586Z,54.83
2018-03-04T11:53:11.112Z,55.30
2018-03-04T11:54:16.649Z,56.44
2018-03-04T11:55:22.181Z,55.40
2018-03-04T11:56:27.710Z,55.30
2018-03-04T11:57:33.244Z,55.77
2018-03-04T11:58:38.768Z,56.63
2018-03-04T11:59:44.310Z,57.29
2018-03-04T12:00:49.833Z,56.91
2018-03-04T12:01:55.364Z,56.53
2018-03-04T12:03:00.891Z,56.06
2018-03-04T12:04:06.428Z,55.77
2018-03-04T12:05:11.955Z,54.26
2018-03-04T12:06:17.752Z,53.78
2018-03-04T12:07:23.023Z,54.35
2018-03-04T12:08:28.553Z,55.11
2018-03-04T12:09:34.106Z,53.88
2018-03-04T12:10:39.613Z,54.26
2018-03-04T12:11:45.144Z,55.11
2018-03-04T12:12:50.671Z,55.49
2018-03-04T12:13:56.201Z,55.40
2018-03-04T12:15:01.749Z,56.53
2018-03-04T12:16:07.273Z,56.44
2018-03-04T12:17:12.795Z,56.25
2018-03-04T12:18:18.334Z,56.53
2018-03-04T12:19:23.857Z,57.29
2018-03-04T12:20:29.392Z,56.82
2018-03-04T12:21:34.930Z,55.30
2018-03-04T12:22:40.451Z,56.15
2018-03-04T12:23:45.985Z,55.49
2018-03-04T12:24:51.513Z,55.58
2018-03-04T12:25:57.061Z,55.58
2018-03-04T12:27:02.587Z,56.72
2018-03-04T12:28:08.110Z,57.48
2018-03-04T12:29:13.655Z,56.63
2018-03-04T12:30:19.189Z,57.01
2018-03-04T12:31:24.704Z,55.77
2018-03-04T12:32:30.236Z,55.02
2018-03-04T12:33:35.767Z,55.30
2018-03-04T12:34:41.294Z,54.55
2018-03-04T12:35:46.825Z,54.45
2018-03-04T12:36:52.364Z,54.55
2018-03-04T12:37:57.896Z,54.45
2018-03-04T12:39:03.421Z,55.87
2018-03-04T12:40:08.956Z,55.87
2018-03-04T12:41:14.485Z,55.21
2018-03-04T12:42:20.021Z,55.40
2018-03-04T12:43:25.547Z,55.02
2018-03-04T12:44:31.076Z,55.30
2018-03-04T12:45:36.610Z,54.83
2018-03-04T12:46:42.144Z,55.96
2018-03-04T12:47:47.674Z,55.02
2018-03-04T12:48:53.204Z,54.64
2018-03-04T12:49:58.736Z,55.87
2018-03-04T12:51:04.265Z,55.77
2018-03-04T12:52:09.827Z,55.84
2018-03-04T12:53:15.328Z,57.92
2018-03-04T12:54:20.861Z,57.17
2018-03-04T12:55:26.387Z,57.64
2018-03-04T12:56:31.921Z,59.44
2018-03-04T12:57:37.449Z,58.02
2018-03-04T12:58:43.176Z,57.07
2018-03-04T12:59:48.515Z,58.11
2018-03-04T13:00:54.072Z,58.02
2018-03-04T13:01:59.570Z,58.02
2018-03-04T13:03:05.102Z,57.73
2018-03-04T13:04:10.639Z,58.21
2018-03-04T13:05:16.165Z,58.87
2018-03-04T13:06:21.694Z,57.54
2018-03-04T13:07:27.230Z,57.73
2018-03-04T13:08:32.759Z,58.11
2018-03-04T13:09:38.303Z,58.02
2018-03-04T13:10:43.822Z,58.21
2018-03-04T13:11:49.348Z,57.67
2018-03-04T13:12:54.878Z,58.52
2018-03-04T13:14:00.414Z,58.33
2018-03-04T13:15:05.946Z,57.48
2018-03-04T13:16:11.473Z,57.10
2018-03-04T13:17:17.006Z,57.10
2018-03-04T13:18:22.537Z,58.07
2018-03-04T13:19:28.076Z,56.72
2018-03-04T13:20:33.592Z,56.27
2018-03-04T13:21:39.126Z,56.56
2018-03-04T13:22:44.658Z,56.18
2018-03-04T13:23:50.186Z,55.90
2018-03-04T13:24:55.723Z,55.80
2018-03-04T13:26:01.251Z,55.49
2018-03-04T13:27:06.782Z,56.34
2018-03-04T13:28:12.316Z,55.30
2018-03-04T13:29:17.845Z,55.96
2018-03-04T13:30:23.371Z,55.87
2018-03-04T13:31:28.907Z,55.87
2018-03-04T13:32:34.437Z,56.91
2018-03-04T13:33:39.966Z,57.89
2018-03-04T13:34:45.502Z,57.13
2018-03-04T13:35:51.029Z,56.82
2018-03-04T13:36:56.565Z,57.01
2018-03-04T13:38:02.096Z,57.86
2018-03-04T13:39:07.622Z,57.20
2018-03-04T13:40:13.160Z,57.01
2018-03-04T13:41:18.714Z,57.86
2018-03-04T13:42:24.217Z,57.10
2018-03-04T13:43:29.750Z,58.24
2018-03-04T13:44:35.281Z,58.05
2018-03-04T13:45:40.820Z,58.81
2018-03-04T13:46:46.343Z,59.66
2018-03-04T13:47:51.878Z,58.43
2018-03-04T13:48:57.428Z,57.76
2018-03-04T13:50:02.938Z,57.67
2018-03-04T13:51:08.459Z,58.24
2018-03-04T13:52:14.000Z,59.09
2018-03-04T13:53:19.520Z,59.56
2018-03-04T13:54:25.054Z,60.03
2018-03-04T13:55:30.584Z,60.03
2018-03-04T13:56:36.115Z,60.32
2018-03-04T13:57:41.652Z,59.94
2018-03-04T13:58:47.179Z,59.94
2018-03-04T13:59:52.709Z,59.56
2018-03-04T14:00:58.244Z,58.43
2018-03-04T14:02:03.772Z,58.43
2018-03-04T14:03:09.301Z,59.75